Time;durP1;ratioP1;P1;durP2;ratioP2;P2;SDS_P1;SDS_P2;PMS_P1;PMS_P2;Temp;Humidity;BMP_temperature;BMP_pressure;BME280_temperature;BME280_humidity;BME280_pressure;Samples;Min_cycle;Max_cycle;Signal;HPM_P1;HPM_P2
2022/01/12 00:00:22;;;;;;;11.52;6.00;;;;;;;-1.15;62.64;95743.91;5010593;28;20037;-62
2022/01/12 00:02:49;;;;;;;11.50;7.28;;;;;;;-0.83;62.26;95769.03;5010809;28;20030;-61
2022/01/12 00:05:16;;;;;;;11.10;6.75;;;;;;;-1.07;62.92;95769.19;5010130;28;20026;-63
2022/01/12 00:07:41;;;;;;;12.43;7.80;;;;;;;-1.40;64.49;95745.72;5006460;28;20060;-64
2022/01/12 00:10:07;;;;;;;11.55;6.53;;;;;;;-1.35;64.66;95754.97;5010537;28;20030;-63
2022/01/12 00:12:33;;;;;;;12.45;7.53;;;;;;;-1.32;64.40;95770.16;5010511;28;20441;-62
2022/01/12 00:14:59;;;;;;;12.15;7.13;;;;;;;-2.02;65.02;95675.16;5041748;28;20068;-61
2022/01/12 00:17:24;;;;;;;12.02;7.13;;;;;;;-1.50;64.92;95775.28;5010370;28;20480;-62
2022/01/12 00:19:50;;;;;;;11.25;7.20;;;;;;;-1.40;64.59;95779.47;5009800;28;20072;-62
2022/01/12 00:22:16;;;;;;;11.00;6.63;;;;;;;-1.42;65.14;95783.69;5041527;28;20069;-62
2022/01/12 00:25:05;;;;;;;10.30;6.95;;;;;;;-1.49;65.41;95784.56;5010519;28;20342;-61
2022/01/12 00:33:10;;;;;;;12.40;7.75;;;;;;;-1.45;65.22;95783.69;5010113;28;20044;-61
2022/01/12 00:35:44;;;;;;;9.75;6.20;;;;;;;-1.53;65.08;95788.78;5009791;28;20120;-61
2022/01/12 00:38:10;;;;;;;10.65;6.32;;;;;;;-1.48;65.14;95789.63;5009769;28;20463;-62
2022/01/12 00:40:44;;;;;;;9.68;6.47;;;;;;;-1.45;64.99;95793.81;5009625;28;20029;-62
2022/01/12 00:43:11;;;;;;;11.38;6.47;;;;;;;-1.42;65.21;95788.75;5009163;28;20026;-61
2022/01/12 00:45:41;;;;;;;12.60;7.03;;;;;;;-1.49;65.02;95782.03;5009861;28;20459;-63
2022/01/12 00:48:08;;;;;;;9.90;6.03;;;;;;;-1.51;65.01;95774.47;5009672;28;20797;-62
2022/01/12 00:50:33;;;;;;;10.45;5.55;;;;;;;-1.46;63.80;95764.28;5009429;28;20026;-63
2022/01/12 00:52:59;;;;;;;12.27;6.75;;;;;;;-1.24;63.27;95800.47;5008476;28;20716;-62
2022/01/12 00:55:24;;;;;;;10.60;6.00;;;;;;;-1.46;64.55;95786.22;5008794;28;20066;-63
2022/01/12 00:57:51;;;;;;;10.25;6.28;;;;;;;-1.61;64.51;95744.13;5009158;28;20088;-62
2022/01/12 01:00:16;;;;;;;10.38;5.43;;;;;;;-1.41;62.76;95759.22;5009240;28;20449;-64
2022/01/12 01:02:42;;;;;;;11.70;6.32;;;;;;;-1.40;63.40;95776.94;5009132;28;20113;-62
2022/01/12 01:05:08;;;;;;;11.75;7.72;;;;;;;-1.42;63.86;95778.63;5009048;28;20022;-62
2022/01/12 01:07:33;;;;;;;10.07;6.68;;;;;;;-1.54;64.52;95778.66;5008809;28;20105;-63
2022/01/12 01:10:08;;;;;;;11.38;6.20;;;;;;;-1.67;64.08;95782.94;5009170;28;20496;-61
2022/01/12 01:12:35;;;;;;;9.30;5.32;;;;;;;-1.51;63.83;95783.72;5009059;28;20033;-62
2022/01/12 01:15:10;;;;;;;11.88;5.70;;;;;;;-1.39;63.38;95791.28;5008840;28;20038;-62
2022/01/12 01:25:38;;;;;;;8.23;5.40;;;;;;;-1.23;62.83;95792.06;5009292;28;20495;-62
2022/01/12 01:28:05;;;;;;;10.23;5.85;;;;;;;-1.21;62.28;95787.81;5009068;28;20034;-61
2022/01/12 01:30:31;;;;;;;11.10;5.82;;;;;;;-1.18;61.99;95792.00;5007066;28;20115;-62
2022/01/12 01:33:04;;;;;;;8.43;5.00;;;;;;;-1.18;61.92;95795.41;5008471;28;20034;-61
2022/01/12 01:35:31;;;;;;;11.38;6.18;;;;;;;-1.32;63.80;95785.31;5008596;28;20046;-62
2022/01/12 01:37:58;;;;;;;10.85;5.85;;;;;;;-1.28;62.88;95790.38;5008818;28;20037;-62
2022/01/12 01:40:24;;;;;;;11.32;6.57;;;;;;;-1.14;62.32;95783.56;5008722;28;20033;-64
2022/01/12 01:53:33;;;;;;;10.40;5.68;;;;;;;-1.19;61.86;95801.31;5008837;28;20032;-61
2022/01/12 01:55:58;;;;;;;9.57;5.75;;;;;;;-1.14;61.00;95798.75;5008193;28;20026;-64
2022/01/12 01:58:24;;;;;;;8.45;5.53;;;;;;;-1.21;62.19;95784.47;5008383;28;20425;-63
2022/01/12 02:00:49;;;;;;;10.65;5.65;;;;;;;-0.99;61.81;95805.44;5008334;28;20022;-62
2022/01/12 02:03:17;;;;;;;11.32;6.57;;;;;;;-1.23;61.70;95779.41;5007937;28;20034;-62
2022/01/12 02:05:42;;;;;;;10.48;6.03;;;;;;;-1.04;61.53;95804.63;5008092;28;20065;-61
2022/01/12 02:08:08;;;;;;;11.00;6.25;;;;;;;-1.00;61.21;95809.66;5007930;28;20069;-62
2022/01/12 02:10:34;;;;;;;11.35;6.13;;;;;;;-1.04;60.67;95809.69;5008273;28;20374;-64
2022/01/12 02:13:01;;;;;;;10.35;6.07;;;;;;;-1.00;61.62;95808.78;5040051;28;20092;-61
2022/01/12 02:15:26;;;;;;;9.77;5.85;;;;;;;-1.19;61.79;95773.47;5008040;28;20468;-61
2022/01/12 02:18:07;;;;;;;10.93;6.05;;;;;;;-0.86;59.92;95816.34;5008461;28;20041;-61
2022/01/12 02:40:09;;;;;;;8.95;5.15;;;;;;;-0.97;60.69;95842.56;5008495;28;20376;-60
2022/01/12 02:42:37;;;;;;;9.98;5.97;;;;;;;-1.10;59.97;95835.84;5008094;28;20037;-63
2022/01/12 02:55:49;;;;;;;9.85;5.85;;;;;;;-1.28;61.05;95857.00;5007574;28;20048;-61
2022/01/12 02:58:15;;;;;;;8.10;5.78;;;;;;;-1.16;60.70;95853.63;5007940;28;20033;-62
2022/01/12 03:03:26;;;;;;;8.20;5.22;;;;;;;-1.25;61.00;95858.69;5008323;28;20176;-61
2022/01/12 03:06:04;;;;;;;9.70;6.25;;;;;;;-1.22;60.41;95864.59;5007607;28;20041;-64
2022/01/12 03:08:36;;;;;;;11.07;6.43;;;;;;;-1.32;61.09;95858.72;5022540;28;20037;-62
2022/01/12 03:11:03;;;;;;;8.57;5.65;;;;;;;-1.24;61.07;95867.97;5007811;28;20029;-62
2022/01/12 03:13:28;;;;;;;10.05;6.18;;;;;;;-1.47;60.95;95830.94;5007681;28;20062;-62
2022/01/12 03:15:54;;;;;;;10.32;6.13;;;;;;;-1.26;60.66;95869.66;5009729;28;20112;-62
2022/01/12 03:18:19;;;;;;;8.65;5.55;;;;;;;-1.32;60.03;95871.34;5011241;28;20401;-61
2022/01/12 03:20:45;;;;;;;9.32;5.93;;;;;;;-1.33;61.10;95881.47;5010985;28;20030;-61
2022/01/12 03:23:13;;;;;;;9.63;5.63;;;;;;;-1.37;60.69;95882.34;5011325;28;20405;-63
2022/01/12 03:25:39;;;;;;;9.40;6.10;;;;;;;-1.36;61.45;95876.44;5011249;28;20077;-62
2022/01/12 03:28:07;;;;;;;11.13;6.43;;;;;;;-1.42;61.53;95884.06;5011131;28;20065;-63
2022/01/12 03:30:40;;;;;;;9.20;5.63;;;;;;;-1.42;60.87;95864.66;5010635;28;20041;-61
2022/01/12 03:33:17;;;;;;;10.15;6.07;;;;;;;-1.37;60.14;95893.31;5010363;28;20029;-61
2022/01/12 04:08:43;;;;;;;12.50;6.00;;;;;;;-1.45;59.91;95935.50;5010109;28;20036;-63
2022/01/12 04:11:08;;;;;;;9.65;5.90;;;;;;;-1.48;59.96;95946.47;5009939;28;20112;-62
2022/01/12 04:13:34;;;;;;;10.88;6.28;;;;;;;-1.41;59.93;95942.25;5009860;28;20341;-63
2022/01/12 04:16:04;;;;;;;12.23;6.95;;;;;;;-1.40;59.07;95945.59;5010133;28;20029;-63
2022/01/12 04:18:30;;;;;;;10.63;5.75;;;;;;;-1.37;58.68;95922.84;5009751;28;20034;-64
2022/01/12 04:20:57;;;;;;;13.75;7.22;;;;;;;-1.24;58.68;95949.81;5009433;28;20041;-63
2022/01/12 04:23:23;;;;;;;9.35;5.22;;;;;;;-1.21;58.21;95951.50;5010163;28;20029;-63
2022/01/12 04:25:52;;;;;;;9.40;5.70;;;;;;;-1.40;58.93;95961.63;5009843;28;20574;-63
2022/01/12 04:28:20;;;;;;;9.00;5.65;;;;;;;-1.36;59.42;95954.88;5010274;28;20117;-61
2022/01/12 04:30:47;;;;;;;10.13;6.28;;;;;;;-1.49;59.04;95932.13;5009975;28;20037;-62
2022/01/12 04:33:13;;;;;;;9.63;6.15;;;;;;;-1.45;58.57;95948.16;5009864;28;20126;-61
2022/01/12 04:38:33;;;;;;;10.15;5.68;;;;;;;-1.48;58.84;95966.72;5007112;28;20034;-62
2022/01/12 04:40:59;;;;;;;10.82;5.60;;;;;;;-1.54;59.64;95969.25;5007338;28;20105;-63
2022/01/12 04:43:25;;;;;;;9.40;6.10;;;;;;;-1.57;58.42;95941.41;5006428;28;20045;-62
2022/01/12 04:50:47;;;;;;;9.60;5.68;;;;;;;-1.98;59.93;95959.97;5006754;28;20037;-64
2022/01/12 04:53:14;;;;;;;10.05;5.93;;;;;;;-1.86;60.11;95982.72;5006898;28;20041;-62
2022/01/12 04:55:39;;;;;;;9.93;5.35;;;;;;;-1.97;59.63;95961.63;5006270;28;20046;-62
2022/01/12 04:58:06;;;;;;;11.18;5.45;;;;;;;-1.95;60.46;95986.91;5006869;28;20057;-62
2022/01/12 05:00:33;;;;;;;11.18;6.78;;;;;;;-2.05;60.50;95984.38;5006635;28;20628;-64
2022/01/12 05:13:49;;;;;;;14.98;5.85;;;;;;;-2.31;60.89;96003.69;5006602;28;20056;-65
2022/01/12 05:16:15;;;;;;;10.80;6.95;;;;;;;-2.38;61.93;96017.13;5008494;28;20572;-63
2022/01/12 05:18:42;;;;;;;10.98;6.20;;;;;;;-2.29;61.25;96018.00;5000618;28;20038;-62
2022/01/12 05:21:09;;;;;;;9.60;6.00;;;;;;;-2.50;61.77;96011.19;5004982;28;20127;-62
2022/01/12 05:23:35;;;;;;;11.82;6.85;;;;;;;-2.33;62.19;96023.88;5007546;28;20034;-62
2022/01/12 05:26:01;;;;;;;12.90;6.85;;;;;;;-2.28;61.12;96028.94;5009075;28;20168;-65
2022/01/12 05:28:28;;;;;;;10.48;6.20;;;;;;;-2.17;60.55;96022.25;5009088;28;20029;-64
2022/01/12 05:30:54;;;;;;;11.65;6.68;;;;;;;-2.14;60.29;96036.59;5008742;28;20033;-62
2022/01/12 05:33:23;;;;;;;11.70;6.82;;;;;;;-2.28;61.34;96039.06;5008569;28;20037;-64
2022/01/12 05:35:49;;;;;;;14.02;6.95;;;;;;;-2.41;61.52;96046.63;5008813;28;20034;-62
2022/01/12 05:38:15;;;;;;;12.40;7.38;;;;;;;-2.67;62.08;96031.34;5008341;28;20183;-62
2022/01/12 05:40:47;;;;;;;13.45;7.43;;;;;;;-2.65;62.69;96047.34;5008911;28;20101;-66
2022/01/12 05:43:21;;;;;;;13.55;7.15;;;;;;;-2.67;62.82;96050.69;5008215;28;20026;-63
2022/01/12 05:45:47;;;;;;;14.13;7.85;;;;;;;-2.74;62.63;96048.97;5008665;28;20624;-63
2022/01/12 05:50:40;;;;;;;15.13;7.97;;;;;;;-2.61;62.09;96059.16;5008800;28;20121;-63
2022/01/12 05:53:06;;;;;;;15.95;8.48;;;;;;;-2.53;61.76;96058.34;5008651;28;20485;-65
2022/01/12 05:55:31;;;;;;;14.45;8.63;;;;;;;-2.72;61.53;96033.00;5004524;28;20087;-63
2022/01/12 05:57:57;;;;;;;14.35;8.32;;;;;;;-2.55;61.72;96067.59;5008328;28;20058;-63
2022/01/12 06:00:25;;;;;;;19.52;10.63;;;;;;;-2.80;62.71;96047.28;5008271;28;20099;-61
2022/01/12 06:02:51;;;;;;;18.10;9.05;;;;;;;-2.71;62.17;96061.63;5008291;28;20029;-64
2022/01/12 06:05:21;;;;;;;12.05;7.28;;;;;;;-2.75;62.53;96045.59;5007922;28;20041;-61
2022/01/12 06:07:50;;;;;;;13.95;7.50;;;;;;;-2.73;62.36;96073.41;5005343;28;20036;-63
2022/01/12 06:10:17;;;;;;;12.98;8.18;;;;;;;-2.98;62.29;96037.91;5008110;28;20053;-63
2022/01/12 06:12:44;;;;;;;12.13;7.50;;;;;;;-2.78;61.94;96071.66;5008063;28;20504;-63
2022/01/12 06:15:09;;;;;;;12.98;7.75;;;;;;;-2.51;61.08;96092.00;5007702;28;20044;-61
2022/01/12 06:17:36;;;;;;;13.30;7.00;;;;;;;-2.43;61.76;96103.00;5008116;28;20101;-63
2022/01/12 06:20:04;;;;;;;13.30;7.38;;;;;;;-2.28;61.13;96107.28;5006231;28;20419;-63
2022/01/12 06:22:29;;;;;;;11.55;6.85;;;;;;;-2.01;59.69;96101.50;5007299;28;20037;-64
2022/01/12 06:24:57;;;;;;;12.07;7.43;;;;;;;-2.16;59.59;96082.06;5006630;28;20044;-63
2022/01/12 06:27:23;;;;;;;11.85;7.07;;;;;;;-2.00;59.86;96112.44;5003921;28;20029;-63
2022/01/12 06:32:20;;;;;;;11.75;6.45;;;;;;;-1.89;59.88;96113.34;5003511;28;20045;-63
2022/01/12 06:34:46;;;;;;;12.00;7.20;;;;;;;-1.96;58.73;96096.47;5004226;28;20638;-63
2022/01/12 06:37:12;;;;;;;9.90;6.85;;;;;;;-1.79;58.38;96121.78;5003846;28;20038;-63
2022/01/12 06:39:37;;;;;;;14.18;6.90;;;;;;;-2.11;59.28;96070.28;5004917;28;20029;-63
2022/01/12 06:42:03;;;;;;;10.50;6.65;;;;;;;-1.98;58.53;96095.59;5004076;28;20100;-64
2022/01/12 06:44:29;;;;;;;13.38;6.43;;;;;;;-1.73;57.88;96101.59;5004783;28;20204;-65
2022/01/12 06:46:57;;;;;;;9.90;6.45;;;;;;;-1.58;57.54;96131.13;5004470;28;20542;-63
2022/01/12 06:49:22;;;;;;;9.23;6.22;;;;;;;-1.94;57.45;96084.66;5005387;28;20038;-64
2022/01/12 06:51:48;;;;;;;11.13;6.65;;;;;;;-1.82;57.63;96099.88;5007920;28;20550;-63
2022/01/12 06:54:16;;;;;;;14.15;7.00;;;;;;;-1.46;57.57;96136.19;5008586;28;20053;-64
2022/01/12 06:56:42;;;;;;;13.48;6.15;;;;;;;-1.46;56.74;96141.25;5007375;28;20030;-63
2022/01/12 06:59:08;;;;;;;11.50;8.18;;;;;;;-1.73;56.53;96106.66;5008375;28;20062;-63
2022/01/12 07:01:34;;;;;;;11.43;6.18;;;;;;;-1.56;57.27;96154.72;5008149;28;20038;-62
2022/01/12 07:03:59;;;;;;;13.40;7.45;;;;;;;-1.65;56.86;96104.13;5009381;28;20107;-64
2022/01/12 07:06:25;;;;;;;12.02;6.38;;;;;;;-1.34;55.96;96125.28;5007350;28;20379;-62
2022/01/12 07:08:51;;;;;;;13.25;6.57;;;;;;;-1.34;55.96;96141.28;5007115;28;20045;-63
2022/01/12 07:11:17;;;;;;;11.88;6.72;;;;;;;-1.31;56.37;96153.13;5008267;28;20033;-62
2022/01/12 07:13:43;;;;;;;11.10;6.80;;;;;;;-1.30;56.77;96162.38;5007520;28;20038;-63
2022/01/12 07:16:08;;;;;;;12.35;7.38;;;;;;;-1.38;56.44;96149.69;5007903;28;20091;-62
2022/01/12 07:18:34;;;;;;;11.98;6.40;;;;;;;-1.33;55.90;96139.59;5007492;28;20053;-65
2022/01/12 07:21:00;;;;;;;12.15;7.00;;;;;;;-1.26;55.93;96169.16;5007438;28;20459;-63
2022/01/12 07:23:27;;;;;;;13.35;6.85;;;;;;;-1.28;56.29;96170.81;5007641;28;20689;-62
2022/01/12 07:25:53;;;;;;;10.65;6.68;;;;;;;-1.36;56.06;96175.88;5008127;28;20583;-64
2022/01/12 07:28:19;;;;;;;11.43;6.35;;;;;;;-1.57;56.51;96166.53;5007707;28;20037;-64
2022/01/12 07:30:45;;;;;;;14.35;7.00;;;;;;;-1.72;56.69;96154.69;5008213;28;20030;-63
2022/01/12 07:33:11;;;;;;;13.27;7.78;;;;;;;-1.41;55.97;96174.16;5007710;28;20026;-62
2022/01/12 07:35:37;;;;;;;12.00;7.15;;;;;;;-1.50;56.40;96185.13;5007192;28;20551;-63
2022/01/12 07:38:02;;;;;;;11.20;6.53;;;;;;;-1.03;55.02;96176.75;5007912;28;20033;-61
2022/01/12 07:40:29;;;;;;;11.52;6.25;;;;;;;-1.04;54.15;96187.72;5007331;28;20126;-62
2022/01/12 07:42:55;;;;;;;14.43;7.05;;;;;;;-1.22;55.27;96175.88;5008948;28;20413;-63
2022/01/12 07:45:21;;;;;;;10.98;5.90;;;;;;;-1.19;54.94;96185.19;5010641;28;20030;-64
2022/01/12 07:47:47;;;;;;;14.90;8.02;;;;;;;-1.15;54.75;96182.66;5009323;28;20041;-63
2022/01/12 07:50:13;;;;;;;10.13;5.63;;;;;;;-1.17;53.75;96181.78;5042072;28;20040;-69
2022/01/12 07:52:38;;;;;;;10.80;6.50;;;;;;;-1.00;54.68;96189.44;5001246;28;20042;-63
2022/01/12 07:55:06;;;;;;;10.68;6.57;;;;;;;-0.91;53.19;96172.56;4990631;28;20109;-64
2022/01/12 07:57:31;;;;;;;10.73;5.28;;;;;;;-0.97;53.02;96171.72;4990991;28;20035;-64
2022/01/12 07:59:57;;;;;;;11.05;6.25;;;;;;;-0.65;51.97;96198.72;4991039;28;20081;-64
2022/01/12 08:02:23;;;;;;;12.20;7.30;;;;;;;-0.49;51.76;96202.09;4990541;28;20037;-66
2022/01/12 08:04:49;;;;;;;15.48;6.03;;;;;;;-0.39;51.24;96191.09;4990758;28;20038;-63
2022/01/12 08:07:14;;;;;;;13.35;6.85;;;;;;;-0.49;51.21;96184.38;4990402;28;20034;-63
2022/01/12 08:09:42;;;;;;;9.25;5.38;;;;;;;-0.25;51.04;96207.97;4990498;28;20026;-64
2022/01/12 08:12:08;;;;;;;13.82;6.75;;;;;;;-0.39;50.71;96213.06;5022124;28;20461;-64
2022/01/12 08:14:34;;;;;;;11.02;6.32;;;;;;;-0.47;50.84;96223.22;4990343;28;20034;-62
2022/01/12 08:17:00;;;;;;;8.93;4.68;;;;;;;-0.43;50.52;96226.56;4990535;28;20085;-63
2022/01/12 08:19:27;;;;;;;8.35;5.20;;;;;;;-0.07;49.77;96229.91;4989708;28;20023;-64
2022/01/12 08:21:53;;;;;;;10.43;6.50;;;;;;;0.29;49.60;96213.75;4990626;28;20053;-63
2022/01/12 08:24:18;;;;;;;10.85;5.85;;;;;;;-0.15;49.05;96212.16;4990441;28;20038;-62
2022/01/12 08:26:44;;;;;;;10.13;6.00;;;;;;;0.25;48.87;96221.41;4990448;28;20034;-64
2022/01/12 08:29:13;;;;;;;14.93;6.85;;;;;;;0.02;49.08;96229.91;4990368;28;20064;-64
2022/01/12 08:31:39;;;;;;;18.33;7.90;;;;;;;-0.26;48.50;96217.28;4990017;28;20439;-64
2022/01/12 08:34:05;;;;;;;10.73;6.22;;;;;;;0.29;47.84;96228.97;4990185;28;20045;-65
2022/01/12 08:36:30;;;;;;;10.52;6.15;;;;;;;-0.18;48.36;96214.75;4990123;28;20038;-65
2022/01/12 08:38:57;;;;;;;10.32;6.07;;;;;;;0.07;48.51;96235.81;4990183;28;20029;-63
2022/01/12 08:41:23;;;;;;;12.45;7.72;;;;;;;-0.08;48.96;96240.88;4990253;28;20030;-64
2022/01/12 08:43:49;;;;;;;11.52;6.72;;;;;;;0.28;47.89;96221.34;4989427;28;20108;-65
2022/01/12 08:46:14;;;;;;;11.15;7.22;;;;;;;0.45;48.55;96219.59;4989886;28;20030;-63
2022/01/12 08:48:40;;;;;;;20.48;11.52;;;;;;;0.53;47.25;96232.28;4990005;28;20038;-64
2022/01/12 08:51:05;;;;;;;14.68;7.18;;;;;;;1.06;47.14;96240.47;4990381;28;20030;-65
2022/01/12 08:53:31;;;;;;;11.02;6.65;;;;;;;1.15;46.27;96216.69;4989966;28;20457;-65
2022/01/12 08:55:56;;;;;;;11.48;6.70;;;;;;;2.71;43.12;96170.16;4989486;28;20064;-65
2022/01/12 08:58:22;;;;;;;7.75;5.22;;;;;;;2.74;41.52;96218.53;4990053;28;20057;-64
2022/01/12 09:00:47;;;;;;;9.48;6.03;;;;;;;3.95;40.89;96227.72;4989967;28;20069;-65
2022/01/12 09:03:13;;;;;;;9.95;6.03;;;;;;;5.94;36.67;96218.38;4989832;28;20030;-63
2022/01/12 09:05:39;;;;;;;8.27;5.63;;;;;;;5.35;35.69;96214.66;4989639;28;20093;-66
2022/01/12 09:08:06;;;;;;;8.77;5.60;;;;;;;3.40;39.10;96199.72;4989212;28;20030;-65
2022/01/12 09:10:32;;;;;;;9.98;5.53;;;;;;;2.75;40.93;96208.31;4989574;28;20109;-64
2022/01/12 09:12:58;;;;;;;9.68;5.65;;;;;;;2.56;41.37;96230.63;5019700;28;20133;-65
2022/01/12 09:15:25;;;;;;;7.15;4.53;;;;;;;1.52;43.17;96222.34;4989071;28;20453;-64
2022/01/12 09:17:52;;;;;;;7.68;4.70;;;;;;;1.24;44.99;96234.41;4989361;28;20202;-65
2022/01/12 09:20:18;;;;;;;9.00;4.90;;;;;;;1.57;44.11;96230.75;4988775;28;20117;-64
2022/01/12 09:22:43;;;;;;;8.70;5.57;;;;;;;1.24;45.09;96217.47;4989447;28;20109;-63
2022/01/12 09:25:10;;;;;;;11.82;5.45;;;;;;;2.30;43.09;96225.81;4989410;28;20033;-64
2022/01/12 09:27:39;;;;;;;9.77;5.75;;;;;;;2.19;43.87;96223.38;4989281;28;20026;-63
2022/01/12 09:30:07;;;;;;;11.10;6.97;;;;;;;1.95;43.58;96209.25;4989547;28;20030;-63
2022/01/12 09:32:33;;;;;;;11.07;4.55;;;;;;;1.98;43.77;96214.31;4988621;28;20034;-65
2022/01/12 09:34:59;;;;;;;9.73;5.80;;;;;;;3.08;42.13;96211.25;4988918;28;20034;-65
2022/01/12 09:37:24;;;;;;;9.18;5.40;;;;;;;3.57;39.59;96196.06;4988819;28;20042;-64
2022/01/12 09:39:50;;;;;;;7.40;4.82;;;;;;;8.19;33.32;96193.72;4989127;28;20113;-65
2022/01/12 09:42:16;;;;;;;10.30;5.32;;;;;;;9.40;29.85;96167.81;4989187;28;20442;-64
2022/01/12 09:44:45;;;;;;;9.35;5.03;;;;;;;7.78;31.32;96178.81;4988274;28;20026;-64
2022/01/12 09:47:10;;;;;;;7.82;5.22;;;;;;;9.09;29.56;96187.03;4989279;28;20140;-63
2022/01/12 09:49:36;;;;;;;8.30;5.50;;;;;;;13.06;24.64;96169.63;4989013;28;20686;-65
2022/01/12 09:52:03;;;;;;;14.10;7.43;;;;;;;12.29;25.15;96177.09;4988757;28;20481;-65
2022/01/12 09:54:29;;;;;;;8.15;4.80;;;;;;;11.04;25.44;96177.13;4988988;28;20038;-65
2022/01/12 09:56:57;;;;;;;7.13;4.18;;;;;;;8.42;28.89;96175.72;4988659;28;20493;-64
2022/01/12 09:59:23;;;;;;;8.95;4.75;;;;;;;7.28;30.67;96202.66;4988580;28;20034;-64
2022/01/12 10:01:49;;;;;;;7.47;4.35;;;;;;;5.95;32.71;96187.63;4988800;28;20149;-65
2022/01/12 10:04:20;;;;;;;7.72;4.18;;;;;;;4.99;34.33;96211.22;4988746;28;20027;-64
2022/01/12 10:06:58;;;;;;;6.88;4.30;;;;;;;4.49;35.36;96175.63;4988391;28;20035;-65
2022/01/12 10:09:31;;;;;;;8.82;4.72;;;;;;;4.58;35.45;96216.34;4988347;28;20041;-64
2022/01/12 10:12:00;;;;;;;8.77;4.72;;;;;;;3.96;37.11;96214.09;4988640;28;20030;-66
2022/01/12 10:14:58;;;;;;;8.25;4.97;;;;;;;3.11;38.45;96235.84;4988340;28;20030;-64
2022/01/12 10:17:36;;;;;;;7.10;4.40;;;;;;;2.91;39.34;96225.94;4988760;28;20575;-65
2022/01/12 10:20:22;;;;;;;9.32;4.95;;;;;;;2.91;39.75;96229.31;4987750;28;20145;-65
2022/01/12 10:23:02;;;;;;;11.32;5.65;;;;;;;3.57;38.40;96226.66;4988400;28;20060;-64
2022/01/12 10:25:30;;;;;;;9.68;5.70;;;;;;;3.60;38.09;96196.00;4991328;28;20042;-65
2022/01/12 10:27:56;;;;;;;12.15;5.90;;;;;;;3.47;38.06;96225.97;4992172;28;20096;-65
2022/01/12 10:30:30;;;;;;;7.30;4.60;;;;;;;2.84;39.25;96220.06;4991925;28;20030;-65
2022/01/12 10:33:04;;;;;;;7.65;5.25;;;;;;;2.83;39.64;96208.19;4991873;28;20038;-64
2022/01/12 10:35:32;;;;;;;9.75;5.50;;;;;;;3.27;38.99;96221.19;4992210;28;20030;-65
2022/01/12 10:38:11;;;;;;;10.13;6.63;;;;;;;3.01;39.29;96224.94;4992628;28;20104;-63
2022/01/12 10:40:47;;;;;;;6.43;4.50;;;;;;;2.89;39.87;96220.03;4992074;28;20018;-65
2022/01/12 10:43:33;;;;;;;9.82;5.63;;;;;;;2.86;39.58;96215.78;4991838;28;20367;-66
2022/01/12 10:46:03;;;;;;;7.47;4.28;;;;;;;2.58;39.72;96220.41;4992505;28;20509;-64
2022/01/12 10:48:47;;;;;;;6.95;5.03;;;;;;;2.53;40.57;96214.53;4992234;28;20031;-66
2022/01/12 10:51:25;;;;;;;6.50;4.38;;;;;;;3.12;39.20;96201.84;4992012;28;20077;-65
2022/01/12 10:53:53;;;;;;;8.88;4.47;;;;;;;3.71;37.65;96211.97;4991936;28;20031;-65
2022/01/12 10:56:21;;;;;;;5.97;3.80;;;;;;;3.63;38.03;96209.53;4991580;28;20118;-65
2022/01/12 10:58:49;;;;;;;7.10;4.53;;;;;;;3.30;38.11;96213.50;4991744;28;20041;-65
2022/01/12 11:01:17;;;;;;;9.85;5.30;;;;;;;2.76;39.71;96214.25;4991649;28;20034;-66
2022/01/12 11:03:43;;;;;;;9.27;4.97;;;;;;;2.93;38.89;96163.03;4991773;28;20033;-64
2022/01/12 11:06:09;;;;;;;8.45;5.63;;;;;;;3.36;38.63;96205.75;4991771;28;20034;-64
2022/01/12 11:08:37;;;;;;;9.05;4.95;;;;;;;3.60;38.27;96212.13;4991363;28;20394;-64
2022/01/12 11:11:03;;;;;;;10.98;6.03;;;;;;;3.39;38.83;96209.94;4991497;28;20041;-67
2022/01/12 11:13:30;;;;;;;7.07;4.90;;;;;;;3.37;38.17;96204.88;4991827;28;20026;-64
2022/01/12 11:15:59;;;;;;;8.57;5.03;;;;;;;2.94;39.16;96208.06;4991671;28;20030;-70
2022/01/12 11:18:30;;;;;;;11.70;6.03;;;;;;;2.94;39.20;96191.06;4991719;28;20026;-65
2022/01/12 11:21:04;;;;;;;9.38;5.63;;;;;;;3.34;38.79;96212.56;5022314;28;20065;-65
2022/01/12 11:23:35;;;;;;;7.18;4.00;;;;;;;3.08;38.51;96185.78;4991794;28;20061;-65
2022/01/12 11:26:14;;;;;;;8.95;4.05;;;;;;;3.27;38.26;96203.34;4991562;28;20034;-65
2022/01/12 11:28:40;;;;;;;6.80;4.43;;;;;;;2.99;38.74;96211.38;4991508;28;20030;-67
2022/01/12 11:31:05;;;;;;;20.20;6.97;;;;;;;2.58;39.23;96217.88;4989512;28;20571;-63
2022/01/12 11:33:31;;;;;;;8.45;4.18;;;;;;;2.31;39.76;96214.81;4991001;28;20030;-64
2022/01/12 11:36:05;;;;;;;15.40;5.80;;;;;;;2.14;40.60;96220.06;5020763;28;20034;-65
2022/01/12 11:38:35;;;;;;;6.65;4.07;;;;;;;2.19;40.24;96225.94;4991000;28;20038;-63
2022/01/12 11:41:21;;;;;;;7.45;4.05;;;;;;;2.32;39.73;96229.19;4990696;28;20026;-64
2022/01/12 11:43:48;;;;;;;5.20;3.58;;;;;;;2.72;39.74;96223.63;4990824;28;20045;-65
2022/01/12 11:46:17;;;;;;;6.80;3.35;;;;;;;2.81;39.01;96220.13;4991368;28;20037;-67
2022/01/12 11:48:50;;;;;;;9.63;5.65;;;;;;;2.81;38.90;96226.94;4991228;28;20026;-64
2022/01/12 11:51:18;;;;;;;6.68;4.07;;;;;;;2.47;39.35;96219.69;4991361;28;20034;-65
2022/01/12 11:53:45;;;;;;;6.70;4.35;;;;;;;3.10;38.43;96227.38;4991257;28;20037;-66
2022/01/12 11:56:13;;;;;;;5.93;3.40;;;;;;;3.50;37.51;96208.91;4990537;28;20102;-65
2022/01/12 11:58:57;;;;;;;6.55;4.32;;;;;;;9.55;29.59;96210.94;4990496;28;20058;-65
2022/01/12 12:01:24;;;;;;;9.43;4.55;;;;;;;7.57;29.80;96192.34;4990316;28;20472;-65
2022/01/12 12:04:01;;;;;;;8.63;4.05;;;;;;;5.85;32.46;96206.63;4990994;28;20105;-65
2022/01/12 12:06:27;;;;;;;7.32;3.90;;;;;;;4.79;33.86;96228.66;4989360;28;20030;-65
2022/01/12 12:09:10;;;;;;;7.55;4.15;;;;;;;3.88;35.58;96224.44;4990280;28;20104;-66
2022/01/12 12:11:35;;;;;;;7.65;4.15;;;;;;;3.25;37.16;96226.28;4990809;28;20038;-64
2022/01/12 12:14:10;;;;;;;7.45;4.18;;;;;;;3.10;37.64;96234.19;4990797;28;20405;-65
2022/01/12 12:16:36;;;;;;;6.90;4.90;;;;;;;2.81;38.05;96232.03;5022125;28;20026;-64
2022/01/12 12:19:05;;;;;;;6.55;3.83;;;;;;;2.30;38.83;96238.56;4990461;28;20030;-64
2022/01/12 12:21:32;;;;;;;7.10;4.43;;;;;;;2.15;39.22;96229.38;4990248;28;20148;-65
2022/01/12 12:24:14;;;;;;;8.88;5.40;;;;;;;1.82;39.91;96228.88;4990704;28;20455;-65
2022/01/12 12:26:51;;;;;;;8.40;4.85;;;;;;;2.10;39.69;96248.09;4990649;28;20034;-66
2022/01/12 12:29:18;;;;;;;8.27;4.85;;;;;;;1.80;40.02;96242.44;4990586;28;20030;-65
2022/01/12 12:31:48;;;;;;;7.07;4.93;;;;;;;1.42;40.85;96236.81;4989950;28;20027;-65
2022/01/12 12:34:14;;;;;;;8.30;4.95;;;;;;;1.21;41.22;96179.38;5021223;28;20520;-66
2022/01/12 12:36:40;;;;;;;8.50;4.90;;;;;;;1.48;40.96;96213.06;4990380;28;20026;-64
2022/01/12 12:39:07;;;;;;;7.82;4.40;;;;;;;1.46;40.86;96217.31;4990186;28;20549;-64
2022/01/12 12:41:41;;;;;;;7.15;5.32;;;;;;;1.87;40.27;96238.13;4990459;28;20386;-68
2022/01/12 12:44:17;;;;;;;6.78;4.70;;;;;;;1.97;39.69;96234.66;4990161;28;20030;-65
2022/01/12 12:46:43;;;;;;;17.65;7.75;;;;;;;2.00;39.86;96238.03;4990336;28;20029;-64
2022/01/12 12:49:08;;;;;;;7.10;4.75;;;;;;;1.89;39.17;96216.94;4989966;28;20109;-63
2022/01/12 12:51:34;;;;;;;11.27;5.60;;;;;;;2.02;39.45;96236.31;4989665;28;20018;-64
2022/01/12 12:53:59;;;;;;;10.15;5.28;;;;;;;2.09;39.25;96221.81;4989956;28;20034;-66
2022/01/12 12:56:28;;;;;;;8.02;5.13;;;;;;;1.98;39.67;96196.50;5021021;28;20033;-65
2022/01/12 12:58:57;;;;;;;7.60;4.88;;;;;;;2.51;38.81;96234.06;4989569;28;20029;-64
2022/01/12 13:01:25;;;;;;;10.27;5.50;;;;;;;2.44;38.78;96233.28;4989939;28;20041;-67
2022/01/12 13:04:01;;;;;;;10.00;6.22;;;;;;;2.46;38.38;96234.13;4989999;28;20104;-65
2022/01/12 13:06:34;;;;;;;6.93;4.22;;;;;;;2.13;39.18;96233.66;4989367;28;20066;-65
2022/01/12 13:09:05;;;;;;;7.38;4.18;;;;;;;2.19;39.52;96238.66;4989161;28;20022;-63
2022/01/12 13:11:33;;;;;;;7.20;4.78;;;;;;;2.27;39.56;96237.75;4989620;28;20108;-64
2022/01/12 13:14:05;;;;;;;7.07;4.55;;;;;;;2.28;39.80;96242.84;4989595;28;20343;-63
2022/01/12 13:16:31;;;;;;;7.53;4.80;;;;;;;2.23;39.61;96226.78;4989492;28;20019;-66
2022/01/12 13:19:07;;;;;;;9.32;5.25;;;;;;;2.20;40.06;96240.34;4989225;28;20042;-64
2022/01/12 13:21:35;;;;;;;9.27;5.60;;;;;;;1.87;40.94;96245.78;4989227;28;20045;-64
2022/01/12 13:24:01;;;;;;;9.85;5.78;;;;;;;1.80;40.85;96229.72;4989366;28;20509;-66
2022/01/12 13:26:31;;;;;;;10.48;5.85;;;;;;;1.98;40.36;96242.28;4989568;28;20049;-64
2022/01/12 13:29:00;;;;;;;11.40;5.88;;;;;;;1.77;41.18;96245.88;4989618;28;20072;-66